createdAt,value
2017-06-12T00:00:38.524Z,60.30
2017-06-12T00:03:06.075Z,60.20
2017-06-12T00:05:39.193Z,60.20
2017-06-12T00:08:06.711Z,60.30
2017-06-12T00:10:34.251Z,59.90
2017-06-12T00:13:01.865Z,60.70
2017-06-12T00:15:29.434Z,61.10
2017-06-12T00:17:57.003Z,60.40
2017-06-12T00:20:24.558Z,60.00
2017-06-12T00:22:52.097Z,60.90
2017-06-12T00:25:19.635Z,62.10
2017-06-12T00:27:47.239Z,61.50
2017-06-12T00:30:14.759Z,61.20
2017-06-12T00:32:42.268Z,61.40
2017-06-12T00:35:09.851Z,61.60
2017-06-12T00:37:37.359Z,62.00
2017-06-12T00:40:05.008Z,61.60
2017-06-12T00:42:32.569Z,62.00
2017-06-12T00:45:00.095Z,61.70
2017-06-12T00:47:27.627Z,61.70
2017-06-12T00:49:55.184Z,61.30
2017-06-12T00:52:22.691Z,62.20
2017-06-12T00:54:50.246Z,62.10
2017-06-12T00:57:17.996Z,60.90
2017-06-12T00:59:45.547Z,61.20
2017-06-12T01:02:13.063Z,61.10
2017-06-12T01:04:40.624Z,61.30
2017-06-12T01:07:08.148Z,61.20
2017-06-12T01:09:35.696Z,61.30
2017-06-12T01:12:03.334Z,61.70
2017-06-12T01:14:30.887Z,62.30
2017-06-12T01:16:58.403Z,61.60
2017-06-12T01:19:25.967Z,62.70
2017-06-12T01:22:05.215Z,61.70
2017-06-12T01:24:32.778Z,62.90
2017-06-12T01:27:00.324Z,62.30
2017-06-12T01:29:27.847Z,62.00
2017-06-12T01:31:55.439Z,63.00
2017-06-12T01:34:22.971Z,62.60
2017-06-12T01:36:50.487Z,62.60
2017-06-12T01:39:18.035Z,61.80
2017-06-12T01:41:45.576Z,61.80
2017-06-12T01:44:13.089Z,62.20
2017-06-12T01:46:40.653Z,61.90
2017-06-12T01:49:08.168Z,61.30
2017-06-12T01:51:35.732Z,61.50
2017-06-12T01:54:03.295Z,60.70
2017-06-12T01:56:30.857Z,61.40
2017-06-12T01:58:58.379Z,60.90
2017-06-12T02:01:25.998Z,60.30
2017-06-12T02:03:53.571Z,60.50
2017-06-12T02:06:21.100Z,59.70
2017-06-12T02:08:48.655Z,59.70
2017-06-12T02:11:16.179Z,60.30
2017-06-12T02:13:43.723Z,60.00
2017-06-12T02:16:11.277Z,59.70
2017-06-12T02:18:38.796Z,59.60
2017-06-12T02:21:06.344Z,59.00
2017-06-12T02:23:33.945Z,59.90
2017-06-12T02:26:01.481Z,59.40
2017-06-12T02:28:29.994Z,59.40
2017-06-12T02:30:57.588Z,59.50
2017-06-12T02:33:25.104Z,59.70
2017-06-12T02:35:52.647Z,59.90
2017-06-12T02:38:20.239Z,59.60
2017-06-12T02:40:47.764Z,59.20
2017-06-12T02:43:15.273Z,59.80
2017-06-12T02:45:42.843Z,59.40
2017-06-12T02:48:10.356Z,59.50
2017-06-12T02:50:37.872Z,59.50
2017-06-12T02:53:05.439Z,59.30
2017-06-12T02:55:33.711Z,59.50
2017-06-12T02:58:01.291Z,59.50
2017-06-12T03:00:29.624Z,60.00
2017-06-12T03:02:57.152Z,60.70
2017-06-12T03:05:24.672Z,60.60
2017-06-12T03:07:52.225Z,60.90
2017-06-12T03:10:34.660Z,61.10
2017-06-12T03:13:03.100Z,61.20
2017-06-12T03:15:30.628Z,62.20
2017-06-12T03:17:58.139Z,62.40
2017-06-12T03:20:25.691Z,62.20
2017-06-12T03:22:53.217Z,62.40
2017-06-12T03:25:20.733Z,62.50
2017-06-12T03:27:48.288Z,63.70
2017-06-12T03:30:15.819Z,63.10
2017-06-12T03:32:43.367Z,63.20
2017-06-12T03:35:10.935Z,62.70
2017-06-12T03:37:38.451Z,62.50
2017-06-12T03:40:05.974Z,62.60
2017-06-12T03:42:33.563Z,62.90
2017-06-12T03:45:01.067Z,62.90
2017-06-12T03:47:28.588Z,62.30
2017-06-12T03:49:56.152Z,62.50
2017-06-12T03:52:24.468Z,62.30
2017-06-12T03:54:52.059Z,62.80
2017-06-12T03:57:19.644Z,62.80
2017-06-12T03:59:47.168Z,62.60
2017-06-12T04:02:14.686Z,62.80
2017-06-12T04:04:42.251Z,62.60
2017-06-12T04:07:09.760Z,63.40
2017-06-12T04:09:37.338Z,62.90
2017-06-12T04:12:04.855Z,62.60
2017-06-12T04:14:32.700Z,62.70
2017-06-12T04:17:00.272Z,63.50
2017-06-12T04:19:27.797Z,63.50
2017-06-12T04:21:55.343Z,62.90
2017-06-12T04:24:22.904Z,62.40
2017-06-12T04:26:50.415Z,62.10
2017-06-12T04:29:17.940Z,61.70
2017-06-12T04:31:45.545Z,61.40
2017-06-12T04:34:13.056Z,60.50
2017-06-12T04:36:40.567Z,60.70
2017-06-12T04:39:08.172Z,59.20
2017-06-12T04:41:35.747Z,59.60
2017-06-12T04:44:03.279Z,59.20
2017-06-12T04:46:30.860Z,59.40
2017-06-12T04:48:58.416Z,61.50
2017-06-12T04:51:25.974Z,62.50
2017-06-12T04:53:53.568Z,61.00
2017-06-12T04:56:21.111Z,61.40
2017-06-12T04:58:48.619Z,59.50
2017-06-12T05:01:16.220Z,58.50
2017-06-12T05:03:43.781Z,58.60
2017-06-12T05:06:11.307Z,57.70
2017-06-12T05:08:38.884Z,57.90
2017-06-12T05:11:06.424Z,57.90
2017-06-12T05:13:33.964Z,57.20
2017-06-12T05:16:01.527Z,56.50
2017-06-12T05:18:29.040Z,57.10
2017-06-12T05:20:56.562Z,58.00
2017-06-12T05:23:24.126Z,57.30
2017-06-12T05:25:51.647Z,57.70
2017-06-12T05:28:19.162Z,57.60
2017-06-12T05:30:46.747Z,57.20
2017-06-12T05:33:14.969Z,56.90
2017-06-12T05:35:42.482Z,56.70
2017-06-12T05:38:10.072Z,56.80
2017-06-12T05:40:37.640Z,57.40
2017-06-12T05:43:05.159Z,56.90
2017-06-12T05:45:32.757Z,56.70
2017-06-12T05:48:02.183Z,56.40
2017-06-12T05:50:29.759Z,56.80
2017-06-12T05:52:57.343Z,56.20
2017-06-12T05:55:24.872Z,55.40
2017-06-12T05:57:52.465Z,56.40
2017-06-12T06:00:20.036Z,55.30
2017-06-12T06:02:47.597Z,55.60
2017-06-12T06:05:15.141Z,56.40
2017-06-12T06:07:42.753Z,57.50
2017-06-12T06:10:10.309Z,58.30
2017-06-12T06:12:37.843Z,57.60
2017-06-12T06:15:05.428Z,58.10
2017-06-12T06:17:32.931Z,58.00
2017-06-12T06:20:00.440Z,58.90
2017-06-12T06:22:28.029Z,59.00
2017-06-12T06:24:55.553Z,58.90
2017-06-12T06:27:23.068Z,59.10
2017-06-12T06:29:50.657Z,59.00
2017-06-12T06:32:18.172Z,59.10
2017-06-12T06:34:45.741Z,59.00
2017-06-12T06:37:13.309Z,57.80
2017-06-12T06:39:40.839Z,56.70
2017-06-12T06:42:08.377Z,55.70
2017-06-12T06:44:35.948Z,55.00
2017-06-12T06:47:03.455Z,55.80
2017-06-12T06:49:30.962Z,54.50
2017-06-12T06:51:58.524Z,53.70
2017-06-12T06:54:26.032Z,53.70
2017-06-12T06:56:53.571Z,53.90
2017-06-12T06:59:21.196Z,53.20
2017-06-12T07:01:48.711Z,51.60
2017-06-12T07:04:16.262Z,51.40
2017-06-12T07:06:44.471Z,52.20
2017-06-12T07:09:11.993Z,54.60
2017-06-12T07:11:39.500Z,55.00
2017-06-12T07:14:07.079Z,54.90
2017-06-12T07:16:34.647Z,56.70
2017-06-12T07:19:02.237Z,56.00
2017-06-12T07:21:29.803Z,56.00
2017-06-12T07:23:57.367Z,56.20
2017-06-12T07:26:24.880Z,56.20
2017-06-12T07:28:52.427Z,57.20
2017-06-12T07:31:20.770Z,56.80
2017-06-12T07:33:48.324Z,57.30
2017-06-12T07:36:16.504Z,56.50
2017-06-12T07:38:44.083Z,56.40
2017-06-12T07:41:11.730Z,56.50
2017-06-12T07:43:39.323Z,56.20
2017-06-12T07:46:06.839Z,56.40
2017-06-12T07:48:34.380Z,55.40
2017-06-12T07:51:01.944Z,54.10
2017-06-12T07:53:29.451Z,54.40
2017-06-12T07:55:57.047Z,55.50
2017-06-12T07:58:24.866Z,54.40
2017-06-12T08:00:52.384Z,54.20
2017-06-12T08:03:19.897Z,54.50
2017-06-12T08:05:47.595Z,53.90
2017-06-12T08:08:15.156Z,54.20
2017-06-12T08:10:42.776Z,56.10
2017-06-12T08:13:10.336Z,54.20
2017-06-12T08:15:37.912Z,55.40
2017-06-12T08:18:05.424Z,55.30
2017-06-12T08:20:32.987Z,56.80
2017-06-12T08:23:00.537Z,55.20
2017-06-12T08:25:28.077Z,54.80
2017-06-12T08:27:55.635Z,56.30
2017-06-12T08:30:23.149Z,55.60
2017-06-12T08:32:50.676Z,55.30
2017-06-12T08:35:18.248Z,54.30
2017-06-12T08:37:45.775Z,55.60
2017-06-12T08:40:13.302Z,54.70
2017-06-12T08:42:40.859Z,54.80
2017-06-12T08:45:08.415Z,54.70
2017-06-12T08:47:35.997Z,54.60
2017-06-12T08:50:03.567Z,54.90
2017-06-12T08:52:31.135Z,55.90
2017-06-12T08:54:58.702Z,55.30
2017-06-12T08:57:26.279Z,55.50
2017-06-12T08:59:53.804Z,55.40
2017-06-12T09:02:21.319Z,54.70
2017-06-12T09:04:48.923Z,54.70
2017-06-12T09:07:16.440Z,55.40
2017-06-12T09:09:43.948Z,55.70
2017-06-12T09:12:11.491Z,55.60
2017-06-12T09:14:39.043Z,56.40
2017-06-12T09:17:06.612Z,56.30
2017-06-12T09:19:34.159Z,56.90
2017-06-12T09:22:01.706Z,55.30
2017-06-12T09:24:29.219Z,56.90
2017-06-12T09:26:56.786Z,57.50
2017-06-12T09:29:24.299Z,55.70
2017-06-12T09:31:51.803Z,56.80
2017-06-12T09:34:19.361Z,56.70
2017-06-12T09:36:46.917Z,56.70
2017-06-12T09:39:14.440Z,57.70
2017-06-12T09:41:42.004Z,58.00
2017-06-12T09:44:09.508Z,58.40
2017-06-12T09:46:37.019Z,59.40
2017-06-12T09:49:04.605Z,58.70
2017-06-12T09:51:32.149Z,58.90
2017-06-12T09:53:59.657Z,58.40
2017-06-12T09:56:27.227Z,59.10
2017-06-12T09:58:54.739Z,58.90
2017-06-12T10:01:23.200Z,59.00
2017-06-12T10:03:50.788Z,60.10
2017-06-12T10:06:18.299Z,61.00
2017-06-12T10:08:45.824Z,60.00
2017-06-12T10:11:13.454Z,61.10
2017-06-12T10:13:40.984Z,59.80
2017-06-12T10:16:08.508Z,58.20
2017-06-12T10:18:36.178Z,57.00
2017-06-12T10:21:03.736Z,56.00
2017-06-12T10:23:31.239Z,56.30
2017-06-12T10:25:58.800Z,55.60
2017-06-12T10:28:26.307Z,54.50
2017-06-12T10:30:53.823Z,53.80
2017-06-12T10:33:21.423Z,54.30
2017-06-12T10:35:48.944Z,56.00
2017-06-12T10:38:16.464Z,57.20
2017-06-12T10:40:44.015Z,57.70
2017-06-12T10:43:11.545Z,57.60
2017-06-12T10:45:39.060Z,58.20
2017-06-12T10:48:06.701Z,58.60
2017-06-12T10:50:34.248Z,57.60
2017-06-12T10:53:01.757Z,58.20
2017-06-12T10:55:29.308Z,53.90
2017-06-12T10:57:56.815Z,53.80
2017-06-12T11:00:24.328Z,52.00
2017-06-12T11:02:51.927Z,52.20
2017-06-12T11:05:19.448Z,51.70
2017-06-12T11:07:46.962Z,51.30
2017-06-12T11:10:14.528Z,52.40
2017-06-12T11:12:42.028Z,53.10
2017-06-12T11:15:09.551Z,52.30
2017-06-12T11:17:37.137Z,52.20
2017-06-12T11:20:04.675Z,52.80
2017-06-12T11:22:37.786Z,51.80
2017-06-12T11:25:05.291Z,51.90
2017-06-12T11:27:32.816Z,52.50
2017-06-12T11:30:00.386Z,52.80
2017-06-12T11:32:27.900Z,53.80
2017-06-12T11:34:55.416Z,53.60
2017-06-12T11:37:22.977Z,55.00
2017-06-12T11:39:50.491Z,53.80
2017-06-12T11:42:17.998Z,55.20
2017-06-12T11:44:45.569Z,55.40
2017-06-12T11:47:13.070Z,54.00
2017-06-12T11:49:40.642Z,54.50
2017-06-12T11:52:08.200Z,53.80
2017-06-12T11:54:35.716Z,54.50
2017-06-12T11:57:03.288Z,53.80
2017-06-12T11:59:30.867Z,52.20
2017-06-12T12:01:58.380Z,52.30
2017-06-12T12:04:25.888Z,50.30
2017-06-12T12:06:53.444Z,50.40
2017-06-12T12:09:20.976Z,50.00
2017-06-12T12:11:48.492Z,48.30
2017-06-12T12:14:16.048Z,47.20
2017-06-12T12:16:43.559Z,47.30
2017-06-12T12:19:11.116Z,48.00
2017-06-12T12:21:38.663Z,47.90
2017-06-12T12:24:06.190Z,48.10
2017-06-12T12:26:33.715Z,48.40
2017-06-12T12:29:01.820Z,49.30
2017-06-12T12:31:29.360Z,47.10
2017-06-12T12:33:56.875Z,48.50
2017-06-12T12:36:24.431Z,48.20
2017-06-12T12:38:51.943Z,48.70
2017-06-12T12:41:19.448Z,49.70
2017-06-12T12:43:46.993Z,47.60
2017-06-12T12:46:14.523Z,49.00
2017-06-12T12:48:42.084Z,49.20
2017-06-12T12:51:09.589Z,50.40
2017-06-12T12:53:37.140Z,48.80
2017-06-12T12:56:04.744Z,49.60
2017-06-12T12:58:32.248Z,49.10
2017-06-12T13:00:59.764Z,49.90
2017-06-12T13:03:27.322Z,52.10
2017-06-12T13:05:54.831Z,56.10
2017-06-12T13:08:22.336Z,61.00
2017-06-12T13:10:49.906Z,64.90
2017-06-12T13:13:17.431Z,67.40
2017-06-12T13:15:44.938Z,69.80
2017-06-12T13:18:12.497Z,70.40
2017-06-12T13:20:40.032Z,71.90
2017-06-12T13:23:07.555Z,71.90
2017-06-12T13:25:35.104Z,74.20
2017-06-12T13:28:02.607Z,74.90
2017-06-12T13:30:30.139Z,74.30
2017-06-12T13:32:57.695Z,76.10
2017-06-12T13:35:25.199Z,75.60
2017-06-12T13:37:52.704Z,74.50
2017-06-12T13:40:20.329Z,75.00
2017-06-12T13:42:47.839Z,74.00
2017-06-12T13:45:15.343Z,75.00
2017-06-12T13:47:42.936Z,74.90
2017-06-12T13:50:10.452Z,72.80
2017-06-12T13:52:37.975Z,72.40
2017-06-12T13:55:05.527Z,73.50
2017-06-12T13:57:33.036Z,74.50
2017-06-12T14:00:00.547Z,74.70
2017-06-12T14:02:28.113Z,77.00
2017-06-12T14:04:55.619Z,75.80
2017-06-12T14:07:23.123Z,77.60
2017-06-12T14:09:50.677Z,75.50
2017-06-12T14:12:18.221Z,74.20
2017-06-12T14:14:46.352Z,75.50
2017-06-12T14:17:13.927Z,77.10
2017-06-12T14:19:41.436Z,76.70
2017-06-12T14:22:09.011Z,76.30
2017-06-12T14:24:36.588Z,76.80
2017-06-12T14:27:04.104Z,76.20
2017-06-12T14:29:31.612Z,75.90
2017-06-12T14:31:59.214Z,76.00
2017-06-12T14:34:26.728Z,74.90
2017-06-12T14:36:54.250Z,74.00
2017-06-12T14:39:21.831Z,76.10
2017-06-12T14:41:49.335Z,77.00
2017-06-12T14:44:16.851Z,76.10
2017-06-12T14:46:44.401Z,75.30
2017-06-12T14:49:11.907Z,74.60
2017-06-12T14:51:39.416Z,74.30
2017-06-12T14:54:07.011Z,75.30
2017-06-12T14:56:34.528Z,75.10
2017-06-12T14:59:02.041Z,74.30
2017-06-12T15:01:29.659Z,74.30
2017-06-12T15:03:57.163Z,74.00
2017-06-12T15:06:24.675Z,73.10
2017-06-12T15:08:52.224Z,72.80
2017-06-12T15:11:19.736Z,74.00
2017-06-12T15:13:47.240Z,73.50
2017-06-12T15:16:14.822Z,74.90
2017-06-12T15:18:42.330Z,73.40
2017-06-12T15:21:09.840Z,73.80
2017-06-12T15:23:37.448Z,72.00
2017-06-12T15:26:05.019Z,72.50
2017-06-12T15:28:32.536Z,71.60
2017-06-12T15:31:00.166Z,72.90
2017-06-12T15:33:27.691Z,72.70
2017-06-12T15:35:55.212Z,73.30
2017-06-12T15:38:22.775Z,72.50
2017-06-12T15:40:50.339Z,71.00
2017-06-12T15:43:17.849Z,71.70
2017-06-12T15:45:45.436Z,71.50
2017-06-12T15:48:12.955Z,72.00
2017-06-12T15:50:40.463Z,72.80
2017-06-12T15:53:08.047Z,71.70
2017-06-12T15:55:35.556Z,72.90
2017-06-12T15:58:03.066Z,72.40
2017-06-12T16:00:30.619Z,71.70
2017-06-12T16:02:58.155Z,72.80
2017-06-12T16:05:25.684Z,72.00
2017-06-12T16:07:53.236Z,71.90
2017-06-12T16:10:21.075Z,73.80
2017-06-12T16:12:48.652Z,72.80
2017-06-12T16:15:16.224Z,72.70
2017-06-12T16:17:43.840Z,72.30
2017-06-12T16:20:11.347Z,72.30
2017-06-12T16:22:38.892Z,71.60
2017-06-12T16:25:06.448Z,69.40
2017-06-12T16:27:33.978Z,71.90
2017-06-12T16:30:01.536Z,71.60
2017-06-12T16:32:29.066Z,70.90
2017-06-12T16:34:56.592Z,70.00
2017-06-12T16:37:24.147Z,68.90
2017-06-12T16:39:51.663Z,69.10
2017-06-12T16:42:19.176Z,67.50
2017-06-12T16:44:46.731Z,68.20
2017-06-12T16:47:14.251Z,66.80
2017-06-12T16:49:41.755Z,67.60
2017-06-12T16:52:09.364Z,68.20
2017-06-12T16:54:36.876Z,65.90
2017-06-12T16:57:04.383Z,68.10
2017-06-12T16:59:31.961Z,67.90
2017-06-12T17:01:59.523Z,69.50
2017-06-12T17:04:27.058Z,68.20
2017-06-12T17:06:54.621Z,68.60
2017-06-12T17:09:22.136Z,70.20
2017-06-12T17:11:49.659Z,68.70
2017-06-12T17:14:17.293Z,70.80
2017-06-12T17:16:44.804Z,70.20
2017-06-12T17:19:12.375Z,69.10
2017-06-12T17:21:39.983Z,68.50
2017-06-12T17:24:07.503Z,69.30
2017-06-12T17:26:35.042Z,69.10
2017-06-12T17:29:03.381Z,71.00
2017-06-12T17:31:30.896Z,70.50
2017-06-12T17:33:58.407Z,71.00
2017-06-12T17:36:26.027Z,72.20
2017-06-12T17:38:53.552Z,73.40
2017-06-12T17:41:21.079Z,74.10
2017-06-12T17:43:48.632Z,74.20
2017-06-12T17:46:16.152Z,73.80
2017-06-12T17:48:43.696Z,74.60
2017-06-12T17:51:12.072Z,74.20
2017-06-12T17:53:39.579Z,75.60
2017-06-12T17:56:07.091Z,75.00
2017-06-12T17:58:34.651Z,73.50
2017-06-12T18:01:02.156Z,74.20
2017-06-12T18:03:29.709Z,74.90
2017-06-12T18:05:57.279Z,75.20
2017-06-12T18:08:24.787Z,74.10
2017-06-12T18:10:52.292Z,76.00
2017-06-12T18:13:19.862Z,73.50
2017-06-12T18:15:47.428Z,73.80
2017-06-12T18:18:14.944Z,74.50
2017-06-12T18:20:42.527Z,75.40
2017-06-12T18:23:10.087Z,76.00
2017-06-12T18:25:37.592Z,73.20
2017-06-12T18:28:05.175Z,74.20
2017-06-12T18:30:32.716Z,73.90
2017-06-12T18:33:00.232Z,74.20
2017-06-12T18:35:27.790Z,73.30
2017-06-12T18:37:55.349Z,73.40
2017-06-12T18:40:22.861Z,71.00
2017-06-12T18:42:50.423Z,70.20
2017-06-12T18:45:17.935Z,72.10
2017-06-12T18:47:45.440Z,73.10
2017-06-12T18:50:13.000Z,73.10
2017-06-12T18:52:40.499Z,73.30
2017-06-12T18:55:08.016Z,73.80
2017-06-12T18:57:35.605Z,74.10
2017-06-12T19:00:03.112Z,73.20
2017-06-12T19:02:30.616Z,73.30
2017-06-12T19:04:58.208Z,71.00
2017-06-12T19:07:25.711Z,70.70
2017-06-12T19:09:53.243Z,70.40
2017-06-12T19:12:20.820Z,69.60
2017-06-12T19:14:48.347Z,68.70
2017-06-12T19:17:15.920Z,69.50
2017-06-12T19:19:43.475Z,70.70
2017-06-12T19:22:10.999Z,70.40
2017-06-12T19:24:38.530Z,71.40
2017-06-12T19:27:06.093Z,70.20
2017-06-12T19:29:33.603Z,70.70
2017-06-12T19:32:01.135Z,71.30
2017-06-12T19:34:28.699Z,70.80
2017-06-12T19:36:56.224Z,70.40
2017-06-12T19:39:23.752Z,70.50
2017-06-12T19:41:51.315Z,71.40
2017-06-12T19:44:18.842Z,70.90
2017-06-12T19:46:46.355Z,70.00
2017-06-12T19:49:13.896Z,70.50
2017-06-12T19:51:41.416Z,70.00
2017-06-12T19:54:08.989Z,71.00
2017-06-12T19:56:36.500Z,72.10
2017-06-12T19:59:04.027Z,71.10
2017-06-12T20:01:31.590Z,70.10
2017-06-12T20:03:59.104Z,68.50
2017-06-12T20:06:26.653Z,68.70
2017-06-12T20:08:54.207Z,66.50
2017-06-12T20:11:21.720Z,66.30
2017-06-12T20:13:49.227Z,65.70
2017-06-12T20:16:16.849Z,65.30
2017-06-12T20:18:44.363Z,65.70
2017-06-12T20:21:11.869Z,64.60
2017-06-12T20:23:39.438Z,63.80
2017-06-12T20:26:06.964Z,63.60
2017-06-12T20:28:34.492Z,65.70
2017-06-12T20:31:02.051Z,65.00
2017-06-12T20:33:29.609Z,64.60
2017-06-12T20:35:57.996Z,66.00
2017-06-12T20:38:25.584Z,65.80
2017-06-12T20:40:53.100Z,66.50
2017-06-12T20:43:20.867Z,65.50
2017-06-12T20:45:48.436Z,65.30
2017-06-12T20:48:15.987Z,65.20
2017-06-12T20:50:43.500Z,65.80
2017-06-12T20:53:11.054Z,66.00
2017-06-12T20:55:38.563Z,64.20
2017-06-12T20:58:06.092Z,62.00
2017-06-12T21:00:33.672Z,63.90
2017-06-12T21:03:01.211Z,63.40
2017-06-12T21:05:28.721Z,65.00
2017-06-12T21:07:56.288Z,66.40
2017-06-12T21:10:23.795Z,66.40
2017-06-12T21:12:51.304Z,67.80
2017-06-12T21:15:18.872Z,68.60
2017-06-12T21:17:46.426Z,69.00
2017-06-12T21:20:13.931Z,69.70
2017-06-12T21:22:41.484Z,69.80
2017-06-12T21:25:08.992Z,70.00
2017-06-12T21:27:36.516Z,70.10
2017-06-12T21:30:04.114Z,65.50
2017-06-12T21:32:31.624Z,67.10
2017-06-12T21:34:59.146Z,67.00
2017-06-12T21:37:26.731Z,67.60
2017-06-12T21:39:54.235Z,66.40
2017-06-12T21:42:21.742Z,66.40
2017-06-12T21:44:49.315Z,63.90
2017-06-12T21:47:16.832Z,63.90
2017-06-12T21:49:44.340Z,64.90
2017-06-12T21:52:11.903Z,63.20
2017-06-12T21:54:39.414Z,64.80
2017-06-12T21:57:06.948Z,66.10
2017-06-12T21:59:34.508Z,65.60
2017-06-12T22:02:02.011Z,64.90
2017-06-12T22:04:29.524Z,66.60
2017-06-12T22:06:57.120Z,64.30
2017-06-12T22:09:24.628Z,65.20
2017-06-12T22:11:52.280Z,65.40
2017-06-12T22:14:19.843Z,65.70
2017-06-12T22:16:47.386Z,67.50
2017-06-12T22:19:14.887Z,66.20
2017-06-12T22:21:42.431Z,66.70
2017-06-12T22:24:09.937Z,66.50
2017-06-12T22:26:37.455Z,66.30
2017-06-12T22:29:05.616Z,64.90
2017-06-12T22:31:33.136Z,63.60
2017-06-12T22:34:00.644Z,64.70
2017-06-12T22:36:28.214Z,62.60
2017-06-12T22:38:55.723Z,64.30
2017-06-12T22:41:23.232Z,64.90
2017-06-12T22:43:50.830Z,66.30
2017-06-12T22:46:18.364Z,65.40
2017-06-12T22:48:45.879Z,63.20
2017-06-12T22:51:13.477Z,64.90
2017-06-12T22:53:40.984Z,64.80
2017-06-12T22:56:08.502Z,65.30
2017-06-12T22:58:36.051Z,64.80
2017-06-12T23:01:03.551Z,64.50
2017-06-12T23:03:31.076Z,64.10
2017-06-12T23:05:58.635Z,61.70
2017-06-12T23:08:26.148Z,61.30
2017-06-12T23:10:53.652Z,62.50
2017-06-12T23:13:21.213Z,59.80
2017-06-12T23:15:48.724Z,60.10
2017-06-12T23:18:16.228Z,62.30
2017-06-12T23:20:43.808Z,62.50
2017-06-12T23:23:11.315Z,62.00
2017-06-12T23:25:44.496Z,61.30
2017-06-12T23:28:12.006Z,62.30
2017-06-12T23:30:39.512Z,62.00
2017-06-12T23:33:07.107Z,61.90
2017-06-12T23:35:34.616Z,62.40
2017-06-12T23:38:02.132Z,62.00
2017-06-12T23:40:30.539Z,62.80
2017-06-12T23:42:58.047Z,64.30
2017-06-12T23:45:25.567Z,66.50
2017-06-12T23:47:53.123Z,66.40
2017-06-12T23:50:20.685Z,68.10
2017-06-12T23:52:48.251Z,68.30
2017-06-12T23:55:15.774Z,68.50
2017-06-12T23:57:43.284Z,68.00
